sensor_id;sensor_type;location;lat;lon;timestamp;pressure;altitude;pressure_sealevel;temperature;humidity
75991;BME280;64673;52.276;10.560;2023-04-03T00:00:08;102283.94;;;0.32;77.55
75991;BME280;64673;52.276;10.560;2023-04-03T00:02:35;102277.22;;;0.12;78.46
75991;BME280;64673;52.276;10.560;2023-04-03T00:05:00;102280.84;;;0.11;78.60
75991;BME280;64673;52.276;10.560;2023-04-03T00:07:25;102284.19;;;0.13;78.68
75991;BME280;64673;52.276;10.560;2023-04-03T00:09:51;102287.47;;;0.07;78.64
75991;BME280;64673;52.276;10.560;2023-04-03T00:12:16;102282.88;;;0.09;78.22
75991;BME280;64673;52.276;10.560;2023-04-03T00:14:41;102287.13;;;0.02;78.85
75991;BME280;64673;52.276;10.560;2023-04-03T00:17:07;102284.31;;;0.03;77.80
75991;BME280;64673;52.276;10.560;2023-04-03T00:19:32;102289.47;;;0.05;77.27
75991;BME280;64673;52.276;10.560;2023-04-03T00:21:57;102286.81;;;0.05;78.34
75991;BME280;64673;52.276;10.560;2023-04-03T00:24:23;102287.13;;;0.02;78.37
75991;BME280;64673;52.276;10.560;2023-04-03T00:26:48;102289.94;;;0.00;78.53
75991;BME280;64673;52.276;10.560;2023-04-03T00:29:13;102286.88;;;-0.13;79.67
75991;BME280;64673;52.276;10.560;2023-04-03T00:31:39;102288.28;;;-0.01;78.03
75991;BME280;64673;52.276;10.560;2023-04-03T00:34:05;102287.03;;;-0.15;79.27
75991;BME280;64673;52.276;10.560;2023-04-03T00:36:30;102291.31;;;-0.22;80.01
75991;BME280;64673;52.276;10.560;2023-04-03T00:38:56;102300.25;;;-0.23;79.55
75991;BME280;64673;52.276;10.560;2023-04-03T00:41:21;102294.94;;;-0.23;79.52
75991;BME280;64673;52.276;10.560;2023-04-03T00:43:47;102303.56;;;-0.21;79.63
75991;BME280;64673;52.276;10.560;2023-04-03T00:46:12;102306.00;;;-0.27;79.58
75991;BME280;64673;52.276;10.560;2023-04-03T00:48:43;102306.25;;;-0.39;81.27
75991;BME280;64673;52.276;10.560;2023-04-03T00:51:17;102306.50;;;-0.32;79.99
75991;BME280;64673;52.276;10.560;2023-04-03T00:53:48;102306.16;;;-0.29;79.60
75991;BME280;64673;52.276;10.560;2023-04-03T00:56:16;102300.50;;;-0.08;79.11
75991;BME280;64673;52.276;10.560;2023-04-03T00:58:50;102304.66;;;-0.06;78.35
75991;BME280;64673;52.276;10.560;2023-04-03T01:01:21;102311.81;;;-0.32;79.09
75991;BME280;64673;52.276;10.560;2023-04-03T01:03:48;102313.22;;;-0.38;80.14
75991;BME280;64673;52.276;10.560;2023-04-03T01:06:16;102314.94;;;-0.54;81.60
75991;BME280;64673;52.276;10.560;2023-04-03T01:08:42;102316.97;;;-0.48;81.12
75991;BME280;64673;52.276;10.560;2023-04-03T01:11:07;102318.94;;;-0.50;80.46
75991;BME280;64673;52.276;10.560;2023-04-03T01:13:33;102327.03;;;-0.52;80.96
75991;BME280;64673;52.276;10.560;2023-04-03T01:16:03;102329.78;;;-0.61;82.23
75991;BME280;64673;52.276;10.560;2023-04-03T01:18:30;102327.75;;;-0.67;82.96
75991;BME280;64673;52.276;10.560;2023-04-03T01:23:46;102330.16;;;-0.74;81.92
75991;BME280;64673;52.276;10.560;2023-04-03T01:26:14;102335.69;;;-0.67;81.97
75991;BME280;64673;52.276;10.560;2023-04-03T01:28:39;102330.09;;;-0.82;82.00
75991;BME280;64673;52.276;10.560;2023-04-03T01:31:11;102340.22;;;-0.60;81.12
75991;BME280;64673;52.276;10.560;2023-04-03T01:33:38;102336.28;;;-0.74;82.84
75991;BME280;64673;52.276;10.560;2023-04-03T01:36:04;102330.78;;;-0.80;83.01
75991;BME280;64673;52.276;10.560;2023-04-03T01:38:30;102337.19;;;-0.83;82.46
75991;BME280;64673;52.276;10.560;2023-04-03T01:40:55;102341.16;;;-0.87;82.85
75991;BME280;64673;52.276;10.560;2023-04-03T01:43:21;102329.41;;;-1.02;84.72
75991;BME280;64673;52.276;10.560;2023-04-03T01:45:46;102332.75;;;-1.00;83.93
75991;BME280;64673;52.276;10.560;2023-04-03T01:48:12;102334.53;;;-0.83;83.99
75991;BME280;64673;52.276;10.560;2023-04-03T01:50:37;102331.81;;;-0.91;83.13
75991;BME280;64673;52.276;10.560;2023-04-03T01:53:03;102334.69;;;-0.84;83.72
75991;BME280;64673;52.276;10.560;2023-04-03T01:55:28;102335.31;;;-1.08;84.23
75991;BME280;64673;52.276;10.560;2023-04-03T01:57:53;102334.22;;;-1.15;84.25
75991;BME280;64673;52.276;10.560;2023-04-03T02:00:19;102335.00;;;-1.05;84.54
75991;BME280;64673;52.276;10.560;2023-04-03T02:02:44;102337.28;;;-1.10;85.23
75991;BME280;64673;52.276;10.560;2023-04-03T02:05:09;102332.34;;;-1.05;84.12
75991;BME280;64673;52.276;10.560;2023-04-03T02:07:35;102339.22;;;-1.12;84.95
75991;BME280;64673;52.276;10.560;2023-04-03T02:10:00;102337.97;;;-1.08;84.51
75991;BME280;64673;52.276;10.560;2023-04-03T02:12:26;102339.50;;;-1.15;84.54
75991;BME280;64673;52.276;10.560;2023-04-03T02:14:51;102341.88;;;-1.12;84.09
75991;BME280;64673;52.276;10.560;2023-04-03T02:17:16;102345.72;;;-1.24;86.24
75991;BME280;64673;52.276;10.560;2023-04-03T02:19:42;102344.28;;;-1.19;85.21
75991;BME280;64673;52.276;10.560;2023-04-03T02:22:07;102342.38;;;-1.26;85.34
75991;BME280;64673;52.276;10.560;2023-04-03T02:24:33;102341.09;;;-1.22;84.82
75991;BME280;64673;52.276;10.560;2023-04-03T02:26:59;102346.31;;;-1.30;84.89
75991;BME280;64673;52.276;10.560;2023-04-03T02:29:24;102347.50;;;-1.42;86.76
75991;BME280;64673;52.276;10.560;2023-04-03T02:31:50;102345.13;;;-1.45;86.32
75991;BME280;64673;52.276;10.560;2023-04-03T02:34:16;102347.97;;;-1.29;85.34
75991;BME280;64673;52.276;10.560;2023-04-03T02:36:41;102350.22;;;-1.34;86.50
75991;BME280;64673;52.276;10.560;2023-04-03T02:39:07;102352.09;;;-1.44;85.92
75991;BME280;64673;52.276;10.560;2023-04-03T02:41:33;102350.28;;;-1.44;85.96
75991;BME280;64673;52.276;10.560;2023-04-03T02:44:04;102355.56;;;-1.44;85.70
75991;BME280;64673;52.276;10.560;2023-04-03T02:46:29;102365.31;;;-1.44;85.92
75991;BME280;64673;52.276;10.560;2023-04-03T02:48:55;102355.50;;;-1.34;84.84
75991;BME280;64673;52.276;10.560;2023-04-03T02:51:22;102364.38;;;-1.26;85.26
75991;BME280;64673;52.276;10.560;2023-04-03T02:53:48;102360.38;;;-1.30;84.87
75991;BME280;64673;52.276;10.560;2023-04-03T02:56:14;102355.22;;;-1.31;85.38
75991;BME280;64673;52.276;10.560;2023-04-03T02:58:39;102359.91;;;-1.25;84.35
75991;BME280;64673;52.276;10.560;2023-04-03T03:01:05;102356.81;;;-1.38;85.75
75991;BME280;64673;52.276;10.560;2023-04-03T03:03:30;102360.72;;;-1.42;85.54
75991;BME280;64673;52.276;10.560;2023-04-03T03:06:12;102355.50;;;-1.34;84.92
75991;BME280;64673;52.276;10.560;2023-04-03T03:08:37;102354.72;;;-1.44;85.93
75991;BME280;64673;52.276;10.560;2023-04-03T03:11:03;102351.66;;;-1.40;84.94
75991;BME280;64673;52.276;10.560;2023-04-03T03:13:29;102356.59;;;-1.55;86.09
75991;BME280;64673;52.276;10.560;2023-04-03T03:15:55;102353.13;;;-1.55;85.66
75991;BME280;64673;52.276;10.560;2023-04-03T03:18:20;102354.34;;;-1.50;85.80
75991;BME280;64673;52.276;10.560;2023-04-03T03:20:46;102357.84;;;-1.59;86.87
75991;BME280;64673;52.276;10.560;2023-04-03T03:23:11;102361.19;;;-1.57;86.67
75991;BME280;64673;52.276;10.560;2023-04-03T03:25:38;102357.72;;;-1.57;86.36
75991;BME280;64673;52.276;10.560;2023-04-03T03:28:04;102363.75;;;-1.65;87.06
75991;BME280;64673;52.276;10.560;2023-04-03T03:30:29;102374.72;;;-1.60;86.36
75991;BME280;64673;52.276;10.560;2023-04-03T03:32:55;102365.13;;;-1.61;87.50
75991;BME280;64673;52.276;10.560;2023-04-03T03:35:20;102377.00;;;-1.74;87.65
75991;BME280;64673;52.276;10.560;2023-04-03T03:37:46;102377.00;;;-1.74;87.26
75991;BME280;64673;52.276;10.560;2023-04-03T03:40:11;102370.75;;;-1.73;87.61
75991;BME280;64673;52.276;10.560;2023-04-03T03:42:38;102368.66;;;-1.70;86.61
75991;BME280;64673;52.276;10.560;2023-04-03T03:45:05;102375.63;;;-1.78;87.02
75991;BME280;64673;52.276;10.560;2023-04-03T03:47:30;102370.47;;;-1.70;86.64
75991;BME280;64673;52.276;10.560;2023-04-03T03:49:56;102376.59;;;-1.79;87.38
75991;BME280;64673;52.276;10.560;2023-04-03T03:52:21;102382.72;;;-1.79;87.10
75991;BME280;64673;52.276;10.560;2023-04-03T03:54:46;102373.78;;;-1.68;85.96
75991;BME280;64673;52.276;10.560;2023-04-03T03:57:12;102370.28;;;-1.69;85.98
75991;BME280;64673;52.276;10.560;2023-04-03T03:59:37;102380.50;;;-1.74;86.47
75991;BME280;64673;52.276;10.560;2023-04-03T04:02:03;102372.56;;;-1.74;86.20
75991;BME280;64673;52.276;10.560;2023-04-03T04:04:28;102372.09;;;-1.69;85.52
75991;BME280;64673;52.276;10.560;2023-04-03T04:06:53;102372.72;;;-1.85;86.95
75991;BME280;64673;52.276;10.560;2023-04-03T04:09:19;102375.63;;;-1.78;86.87
75991;BME280;64673;52.276;10.560;2023-04-03T04:11:44;102380.25;;;-1.90;86.79
75991;BME280;64673;52.276;10.560;2023-04-03T04:14:10;102378.28;;;-1.88;87.15
75991;BME280;64673;52.276;10.560;2023-04-03T04:16:37;102380.94;;;-1.88;86.75
75991;BME280;64673;52.276;10.560;2023-04-03T04:19:02;102375.69;;;-1.98;87.62
75991;BME280;64673;52.276;10.560;2023-04-03T04:21:28;102372.34;;;-2.00;87.48
75991;BME280;64673;52.276;10.560;2023-04-03T04:23:53;102376.13;;;-2.02;88.38
75991;BME280;64673;52.276;10.560;2023-04-03T04:26:18;102370.00;;;-2.22;88.83
75991;BME280;64673;52.276;10.560;2023-04-03T04:28:44;102370.41;;;-2.07;88.15
75991;BME280;64673;52.276;10.560;2023-04-03T04:31:09;102368.03;;;-2.10;86.78
75991;BME280;64673;52.276;10.560;2023-04-03T04:33:34;102378.63;;;-2.10;87.47
75991;BME280;64673;52.276;10.560;2023-04-03T04:36:00;102378.59;;;-2.01;87.88
75991;BME280;64673;52.276;10.560;2023-04-03T04:38:26;102381.53;;;-1.94;86.61
75991;BME280;64673;52.276;10.560;2023-04-03T04:40:51;102391.13;;;-1.93;87.94
75991;BME280;64673;52.276;10.560;2023-04-03T04:43:16;102390.81;;;-1.90;86.00
75991;BME280;64673;52.276;10.560;2023-04-03T04:45:42;102397.38;;;-1.94;87.05
75991;BME280;64673;52.276;10.560;2023-04-03T04:48:07;102398.63;;;-1.98;86.96
75991;BME280;64673;52.276;10.560;2023-04-03T04:50:33;102403.19;;;-1.71;84.60
75991;BME280;64673;52.276;10.560;2023-04-03T04:52:58;102406.25;;;-1.76;86.31
75991;BME280;64673;52.276;10.560;2023-04-03T04:55:23;102410.84;;;-1.78;86.30
75991;BME280;64673;52.276;10.560;2023-04-03T04:57:49;102412.78;;;-1.80;85.84
75991;BME280;64673;52.276;10.560;2023-04-03T05:00:14;102409.84;;;-1.77;86.54
75991;BME280;64673;52.276;10.560;2023-04-03T05:02:40;102410.28;;;-1.72;86.60
75991;BME280;64673;52.276;10.560;2023-04-03T05:05:06;102408.16;;;-1.68;86.89
75991;BME280;64673;52.276;10.560;2023-04-03T05:07:32;102421.28;;;-1.76;87.54
75991;BME280;64673;52.276;10.560;2023-04-03T05:09:57;102416.53;;;-1.73;86.89
75991;BME280;64673;52.276;10.560;2023-04-03T05:12:22;102407.81;;;-1.83;87.58
75991;BME280;64673;52.276;10.560;2023-04-03T05:14:48;102427.00;;;-1.81;87.57
75991;BME280;64673;52.276;10.560;2023-04-03T05:17:13;102424.50;;;-1.82;87.71
75991;BME280;64673;52.276;10.560;2023-04-03T05:19:38;102421.41;;;-1.78;87.70
75991;BME280;64673;52.276;10.560;2023-04-03T05:22:04;102430.75;;;-1.74;86.65
75991;BME280;64673;52.276;10.560;2023-04-03T05:24:29;102429.66;;;-1.81;88.10
75991;BME280;64673;52.276;10.560;2023-04-03T05:26:55;102434.47;;;-1.67;87.98
75991;BME280;64673;52.276;10.560;2023-04-03T05:29:21;102433.38;;;-1.74;88.43
75991;BME280;64673;52.276;10.560;2023-04-03T05:31:49;102433.09;;;-1.71;87.72
75991;BME280;64673;52.276;10.560;2023-04-03T05:34:14;102435.16;;;-1.65;87.23
75991;BME280;64673;52.276;10.560;2023-04-03T05:36:39;102440.88;;;-1.60;86.70
75991;BME280;64673;52.276;10.560;2023-04-03T05:39:05;102445.84;;;-1.57;87.35
75991;BME280;64673;52.276;10.560;2023-04-03T05:41:30;102449.19;;;-1.55;88.22
75991;BME280;64673;52.276;10.560;2023-04-03T05:43:56;102452.66;;;-1.44;87.81
75991;BME280;64673;52.276;10.560;2023-04-03T05:46:21;102446.97;;;-1.50;88.08
75991;BME280;64673;52.276;10.560;2023-04-03T05:48:47;102450.41;;;-1.39;86.96
75991;BME280;64673;52.276;10.560;2023-04-03T05:51:19;102458.59;;;-1.33;87.42
75991;BME280;64673;52.276;10.560;2023-04-03T05:53:44;102456.19;;;-1.26;86.71
75991;BME280;64673;52.276;10.560;2023-04-03T05:56:11;102460.78;;;-1.19;86.28
75991;BME280;64673;52.276;10.560;2023-04-03T05:58:36;102458.00;;;-1.17;87.03
75991;BME280;64673;52.276;10.560;2023-04-03T06:01:01;102459.34;;;-1.13;85.78
75991;BME280;64673;52.276;10.560;2023-04-03T06:03:27;102462.22;;;-0.97;84.60
75991;BME280;64673;52.276;10.560;2023-04-03T06:05:52;102464.81;;;-0.87;85.19
75991;BME280;64673;52.276;10.560;2023-04-03T06:08:17;102463.81;;;-0.86;84.73
75991;BME280;64673;52.276;10.560;2023-04-03T06:10:44;102467.53;;;-0.79;84.19
75991;BME280;64673;52.276;10.560;2023-04-03T06:13:10;102469.25;;;-0.88;85.14
75991;BME280;64673;52.276;10.560;2023-04-03T06:15:36;102475.72;;;-0.73;85.40
75991;BME280;64673;52.276;10.560;2023-04-03T06:18:02;102475.50;;;-0.61;85.11
75991;BME280;64673;52.276;10.560;2023-04-03T06:20:27;102475.75;;;-0.55;84.44
75991;BME280;64673;52.276;10.560;2023-04-03T06:22:53;102477.66;;;-0.47;83.30
75991;BME280;64673;52.276;10.560;2023-04-03T06:25:18;102472.13;;;-0.54;83.78
75991;BME280;64673;52.276;10.560;2023-04-03T06:27:44;102474.56;;;-0.43;83.37
75991;BME280;64673;52.276;10.560;2023-04-03T06:30:10;102477.50;;;-0.28;83.04
75991;BME280;64673;52.276;10.560;2023-04-03T06:32:36;102473.44;;;-0.22;82.55
75991;BME280;64673;52.276;10.560;2023-04-03T06:35:02;102468.56;;;-0.27;82.98
75991;BME280;64673;52.276;10.560;2023-04-03T06:37:28;102472.28;;;-0.20;82.55
75991;BME280;64673;52.276;10.560;2023-04-03T06:39:54;102468.78;;;-0.03;82.35
75991;BME280;64673;52.276;10.560;2023-04-03T06:42:20;102473.47;;;0.04;82.43
75991;BME280;64673;52.276;10.560;2023-04-03T06:44:46;102476.56;;;0.17;80.67
75991;BME280;64673;52.276;10.560;2023-04-03T06:47:13;102479.28;;;0.25;80.41
75991;BME280;64673;52.276;10.560;2023-04-03T06:49:39;102490.47;;;0.36;79.70
75991;BME280;64673;52.276;10.560;2023-04-03T06:52:04;102485.84;;;0.39;78.91
75991;BME280;64673;52.276;10.560;2023-04-03T06:54:30;102492.41;;;0.52;79.62
75991;BME280;64673;52.276;10.560;2023-04-03T06:56:56;102490.78;;;0.59;78.22
75991;BME280;64673;52.276;10.560;2023-04-03T06:59:21;102495.47;;;0.65;78.33
75991;BME280;64673;52.276;10.560;2023-04-03T07:01:47;102498.13;;;0.65;78.47
75991;BME280;64673;52.276;10.560;2023-04-03T07:04:12;102502.09;;;0.61;78.35
75991;BME280;64673;52.276;10.560;2023-04-03T07:06:37;102511.25;;;0.67;78.15
75991;BME280;64673;52.276;10.560;2023-04-03T07:09:03;102510.81;;;0.80;77.97
75991;BME280;64673;52.276;10.560;2023-04-03T07:11:28;102511.84;;;0.87;77.46
75991;BME280;64673;52.276;10.560;2023-04-03T07:13:54;102513.41;;;0.97;76.66
75991;BME280;64673;52.276;10.560;2023-04-03T07:16:19;102520.25;;;1.08;77.26
75991;BME280;64673;52.276;10.560;2023-04-03T07:18:46;102509.78;;;1.06;75.72
75991;BME280;64673;52.276;10.560;2023-04-03T07:21:11;102517.00;;;1.22;76.06
75991;BME280;64673;52.276;10.560;2023-04-03T07:23:37;102516.72;;;1.33;74.96
75991;BME280;64673;52.276;10.560;2023-04-03T07:26:02;102521.09;;;1.51;75.16
75991;BME280;64673;52.276;10.560;2023-04-03T07:28:28;102525.94;;;1.63;74.81
75991;BME280;64673;52.276;10.560;2023-04-03T07:31:01;102522.97;;;1.58;73.31
75991;BME280;64673;52.276;10.560;2023-04-03T07:33:28;102538.78;;;1.68;73.83
75991;BME280;64673;52.276;10.560;2023-04-03T07:35:53;102527.16;;;1.77;73.75
75991;BME280;64673;52.276;10.560;2023-04-03T07:38:18;102531.16;;;1.97;72.73
75991;BME280;64673;52.276;10.560;2023-04-03T07:40:48;102530.66;;;2.02;72.38
75991;BME280;64673;52.276;10.560;2023-04-03T07:43:15;102534.81;;;2.04;74.13
75991;BME280;64673;52.276;10.560;2023-04-03T07:45:41;102533.34;;;2.10;72.82
75991;BME280;64673;52.276;10.560;2023-04-03T07:48:07;102536.16;;;2.16;71.61
75991;BME280;64673;52.276;10.560;2023-04-03T07:50:32;102537.34;;;2.22;70.42
75991;BME280;64673;52.276;10.560;2023-04-03T07:52:58;102532.50;;;2.42;71.72
75991;BME280;64673;52.276;10.560;2023-04-03T07:55:24;102530.16;;;2.47;69.66
75991;BME280;64673;52.276;10.560;2023-04-03T07:57:49;102522.16;;;2.55;71.24
75991;BME280;64673;52.276;10.560;2023-04-03T08:00:15;102527.16;;;2.74;69.99
75991;BME280;64673;52.276;10.560;2023-04-03T08:02:43;102529.81;;;2.66;69.86
75991;BME280;64673;52.276;10.560;2023-04-03T08:05:09;102521.16;;;2.64;69.27
75991;BME280;64673;52.276;10.560;2023-04-03T08:07:36;102526.00;;;2.61;68.23
75991;BME280;64673;52.276;10.560;2023-04-03T08:10:02;102519.66;;;2.70;69.43
75991;BME280;64673;52.276;10.560;2023-04-03T08:12:28;102522.41;;;3.01;68.23
75991;BME280;64673;52.276;10.560;2023-04-03T08:14:55;102529.81;;;2.74;68.30
75991;BME280;64673;52.276;10.560;2023-04-03T08:17:20;102520.47;;;2.78;67.63
75991;BME280;64673;52.276;10.560;2023-04-03T08:19:46;102518.22;;;2.98;68.27
75991;BME280;64673;52.276;10.560;2023-04-03T08:22:12;102522.25;;;2.94;67.39
75991;BME280;64673;52.276;10.560;2023-04-03T08:24:37;102522.41;;;3.01;66.30
75991;BME280;64673;52.276;10.560;2023-04-03T08:27:02;102524.41;;;2.99;65.57
75991;BME280;64673;52.276;10.560;2023-04-03T08:29:28;102516.22;;;3.00;66.26
75991;BME280;64673;52.276;10.560;2023-04-03T08:31:53;102523.19;;;3.17;64.86
75991;BME280;64673;52.276;10.560;2023-04-03T08:34:19;102516.03;;;3.10;64.78
75991;BME280;64673;52.276;10.560;2023-04-03T08:36:45;102517.97;;;3.24;65.12
75991;BME280;64673;52.276;10.560;2023-04-03T08:39:11;102507.44;;;3.30;63.70
75991;BME280;64673;52.276;10.560;2023-04-03T08:41:42;102515.31;;;3.55;63.04
75991;BME280;64673;52.276;10.560;2023-04-03T08:44:20;102509.16;;;3.54;60.78
75991;BME280;64673;52.276;10.560;2023-04-03T08:49:45;102507.03;;;3.73;60.12
75991;BME280;64673;52.276;10.560;2023-04-03T08:52:18;102508.81;;;3.57;62.07
75991;BME280;64673;52.276;10.560;2023-04-03T08:54:51;102512.25;;;3.66;60.23
75991;BME280;64673;52.276;10.560;2023-04-03T08:57:24;102513.69;;;3.77;61.54
75991;BME280;64673;52.276;10.560;2023-04-03T08:59:52;102518.03;;;3.78;61.58
75991;BME280;64673;52.276;10.560;2023-04-03T09:02:29;102507.94;;;3.88;60.87
75991;BME280;64673;52.276;10.560;2023-04-03T09:04:57;102515.91;;;3.96;58.71
75991;BME280;64673;52.276;10.560;2023-04-03T09:07:33;102505.88;;;3.98;59.10
75991;BME280;64673;52.276;10.560;2023-04-03T09:10:02;102513.47;;;3.86;58.25
75991;BME280;64673;52.276;10.560;2023-04-03T09:12:41;102519.47;;;3.88;59.24
75991;BME280;64673;52.276;10.560;2023-04-03T09:15:21;102521.03;;;3.75;58.97
75991;BME280;64673;52.276;10.560;2023-04-03T09:18:00;102517.97;;;3.86;57.55
75991;BME280;64673;52.276;10.560;2023-04-03T09:23:20;102506.63;;;4.29;60.54
75991;BME280;64673;52.276;10.560;2023-04-03T09:25:47;102513.09;;;4.50;58.93
75991;BME280;64673;52.276;10.560;2023-04-03T09:28:14;102502.94;;;4.30;58.67
75991;BME280;64673;52.276;10.560;2023-04-03T09:30:39;102508.50;;;4.44;60.02
75991;BME280;64673;52.276;10.560;2023-04-03T09:33:05;102512.97;;;4.28;57.24
75991;BME280;64673;52.276;10.560;2023-04-03T09:35:35;102509.22;;;4.37;57.71
75991;BME280;64673;52.276;10.560;2023-04-03T09:38:01;102502.06;;;4.53;56.49
75991;BME280;64673;52.276;10.560;2023-04-03T09:40:44;102501.22;;;4.67;56.80
75991;BME280;64673;52.276;10.560;2023-04-03T09:45:44;102496.53;;;5.13;54.06
75991;BME280;64673;52.276;10.560;2023-04-03T09:53:40;102500.16;;;4.76;54.62
75991;BME280;64673;52.276;10.560;2023-04-03T10:01:38;102494.13;;;4.59;55.48
75991;BME280;64673;52.276;10.560;2023-04-03T10:04:18;102498.38;;;4.54;56.21
75991;BME280;64673;52.276;10.560;2023-04-03T10:09:27;102474.91;;;4.26;56.32
75991;BME280;64673;52.276;10.560;2023-04-03T10:12:10;102478.28;;;4.58;55.95
75991;BME280;64673;52.276;10.560;2023-04-03T10:14:40;102472.72;;;4.30;55.96
75991;BME280;64673;52.276;10.560;2023-04-03T10:22:45;102483.72;;;4.79;54.32
75991;BME280;64673;52.276;10.560;2023-04-03T10:27:55;102472.84;;;4.51;55.07
75991;BME280;64673;52.276;10.560;2023-04-03T10:30:39;102468.81;;;4.70;53.88
75991;BME280;64673;52.276;10.560;2023-04-03T10:33:20;102473.44;;;4.76;55.00
75991;BME280;64673;52.276;10.560;2023-04-03T10:47:12;102465.22;;;5.07;52.33
75991;BME280;64673;52.276;10.560;2023-04-03T10:53:16;102457.72;;;5.74;51.99
75991;BME280;64673;52.276;10.560;2023-04-03T10:55:36;102457.84;;;5.87;49.09
75991;BME280;64673;52.276;10.560;2023-04-03T10:58:05;102451.84;;;5.64;49.91
75991;BME280;64673;52.276;10.560;2023-04-03T11:00:45;102445.34;;;5.73;50.42
75991;BME280;64673;52.276;10.560;2023-04-03T11:03:16;102456.38;;;6.06;51.35
75991;BME280;64673;52.276;10.560;2023-04-03T11:05:50;102443.94;;;5.77;50.63
75991;BME280;64673;52.276;10.560;2023-04-03T11:08:25;102446.91;;;5.82;50.59
75991;BME280;64673;52.276;10.560;2023-04-03T11:10:55;102441.66;;;5.74;49.89
75991;BME280;64673;52.276;10.560;2023-04-03T11:13:32;102440.88;;;5.38;49.60
75991;BME280;64673;52.276;10.560;2023-04-03T11:15:58;102448.31;;;5.42;51.25
75991;BME280;64673;52.276;10.560;2023-04-03T11:18:35;102444.88;;;5.27;49.98
75991;BME280;64673;52.276;10.560;2023-04-03T11:23:43;102434.78;;;5.08;50.60
75991;BME280;64673;52.276;10.560;2023-04-03T11:26:16;102438.91;;;5.10;52.21
75991;BME280;64673;52.276;10.560;2023-04-03T11:28:42;102432.03;;;4.87;49.66
75991;BME280;64673;52.276;10.560;2023-04-03T11:36:55;102426.53;;;5.09;49.12
75991;BME280;64673;52.276;10.560;2023-04-03T11:39:35;102412.09;;;5.04;48.62
75991;BME280;64673;52.276;10.560;2023-04-03T11:47:46;102410.66;;;6.36;47.72
75991;BME280;64673;52.276;10.560;2023-04-03T11:50:38;102412.66;;;6.61;46.77
75991;BME280;64673;52.276;10.560;2023-04-03T12:00:50;102401.59;;;6.09;50.09
75991;BME280;64673;52.276;10.560;2023-04-03T12:05:47;102387.81;;;6.81;47.47
75991;BME280;64673;52.276;10.560;2023-04-03T12:18:58;102390.38;;;6.54;47.05
75991;BME280;64673;52.276;10.560;2023-04-03T12:32:27;102402.84;;;6.41;46.61
75991;BME280;64673;52.276;10.560;2023-04-03T12:46:34;102385.38;;;6.17;46.85
75991;BME280;64673;52.276;10.560;2023-04-03T12:48:27;102381.41;;;6.41;44.59
75991;BME280;64673;52.276;10.560;2023-04-03T12:50:54;102381.06;;;6.50;44.06
75991;BME280;64673;52.276;10.560;2023-04-03T12:53:21;102376.88;;;6.41;43.86
75991;BME280;64673;52.276;10.560;2023-04-03T12:55:52;102370.25;;;6.78;44.82
75991;BME280;64673;52.276;10.560;2023-04-03T12:58:28;102367.28;;;6.60;42.29
75991;BME280;64673;52.276;10.560;2023-04-03T13:01:15;102367.66;;;6.50;45.15
75991;BME280;64673;52.276;10.560;2023-04-03T13:03:45;102372.59;;;6.12;45.44
75991;BME280;64673;52.276;10.560;2023-04-03T13:06:19;102365.75;;;6.10;46.10
75991;BME280;64673;52.276;10.560;2023-04-03T13:11:16;102362.13;;;6.58;44.02
75991;BME280;64673;52.276;10.560;2023-04-03T13:13:57;102368.38;;;6.66;45.38
75991;BME280;64673;52.276;10.560;2023-04-03T13:16:25;102351.25;;;6.67;42.45
75991;BME280;64673;52.276;10.560;2023-04-03T13:18:53;102354.00;;;6.93;45.77
75991;BME280;64673;52.276;10.560;2023-04-03T13:21:19;102352.16;;;6.87;41.57
75991;BME280;64673;52.276;10.560;2023-04-03T13:23:50;102340.84;;;7.11;43.41
75991;BME280;64673;52.276;10.560;2023-04-03T13:26:17;102348.97;;;7.38;43.94
75991;BME280;64673;52.276;10.560;2023-04-03T13:28:44;102347.19;;;6.84;45.47
75991;BME280;64673;52.276;10.560;2023-04-03T13:33:45;102338.44;;;6.69;45.71
75991;BME280;64673;52.276;10.560;2023-04-03T13:36:23;102344.75;;;6.95;44.91
75991;BME280;64673;52.276;10.560;2023-04-03T13:39:22;102342.75;;;6.56;45.10
75991;BME280;64673;52.276;10.560;2023-04-03T13:41:57;102332.97;;;6.42;46.25
75991;BME280;64673;52.276;10.560;2023-04-03T13:47:18;102327.88;;;7.15;44.31
75991;BME280;64673;52.276;10.560;2023-04-03T13:50:04;102323.31;;;7.22;45.06
75991;BME280;64673;52.276;10.560;2023-04-03T13:52:33;102312.19;;;7.97;44.12
75991;BME280;64673;52.276;10.560;2023-04-03T13:55:31;102314.38;;;8.27;42.11
75991;BME280;64673;52.276;10.560;2023-04-03T13:58:21;102311.38;;;7.31;41.43
75991;BME280;64673;52.276;10.560;2023-04-03T14:00:53;102304.66;;;6.81;45.65
75991;BME280;64673;52.276;10.560;2023-04-03T14:03:25;102315.34;;;6.68;45.43
75991;BME280;64673;52.276;10.560;2023-04-03T14:05:51;102320.31;;;6.71;44.60
75991;BME280;64673;52.276;10.560;2023-04-03T14:08:18;102315.69;;;7.12;44.76
75991;BME280;64673;52.276;10.560;2023-04-03T14:10:44;102303.50;;;7.95;44.88
75991;BME280;64673;52.276;10.560;2023-04-03T14:13:14;102305.41;;;7.62;42.88
75991;BME280;64673;52.276;10.560;2023-04-03T14:15:40;102298.78;;;7.78;41.47
75991;BME280;64673;52.276;10.560;2023-04-03T14:18:12;102298.53;;;7.00;41.96
75991;BME280;64673;52.276;10.560;2023-04-03T14:20:38;102303.56;;;6.55;42.14
75991;BME280;64673;52.276;10.560;2023-04-03T14:23:04;102307.94;;;6.70;43.77
75991;BME280;64673;52.276;10.560;2023-04-03T14:25:30;102301.63;;;9.36;41.57
75991;BME280;64673;52.276;10.560;2023-04-03T14:27:55;102294.88;;;11.28;36.98
75991;BME280;64673;52.276;10.560;2023-04-03T14:30:30;102295.53;;;10.82;36.13
75991;BME280;64673;52.276;10.560;2023-04-03T14:32:56;102295.56;;;9.16;41.91
75991;BME280;64673;52.276;10.560;2023-04-03T14:35:22;102296.41;;;8.21;40.58
75991;BME280;64673;52.276;10.560;2023-04-03T14:37:48;102295.91;;;7.40;42.99
75991;BME280;64673;52.276;10.560;2023-04-03T14:40:18;102297.69;;;6.99;42.65